Time;durP1;ratioP1;P1;durP2;ratioP2;P2;SDS_P1;SDS_P2;PMS_P1;PMS_P2;Temp;Humidity;BMP_temperature;BMP_pressure;BME280_temperature;BME280_humidity;BME280_pressure;Samples;Min_cycle;Max_cycle;Signal;HPM_P1;HPM_P2
2023/10/14 00:02:01;;;;;;;30.33;5.07;;;;;;;;;;6081234;23;20089;-64
2023/10/14 00:04:40;;;;;;;36.28;5.03;;;;;;;;;;6080328;23;20023;-63
2023/10/14 00:07:34;;;;;;;26.40;4.07;;;;;;;;;;6079203;23;20033;-64
2023/10/14 00:10:22;;;;;;;26.40;3.80;;;;;;;;;;6080203;23;20381;-64
2023/10/14 00:13:16;;;;;;;21.23;3.53;;;;;;;;;;6082103;23;20090;-61
2023/10/14 00:16:07;;;;;;;27.13;3.75;;;;;;;;;;6079132;23;20026;-53
2023/10/14 00:19:04;;;;;;;20.38;4.07;;;;;;;;;;6051159;23;20564;-52
2023/10/14 00:21:51;;;;;;;24.77;4.22;;;;;;;;;;6052142;23;20022;-50
2023/10/14 00:24:48;;;;;;;21.80;3.60;;;;;;;;;;6052100;23;20027;-49
2023/10/14 00:27:33;;;;;;;28.00;4.47;;;;;;;;;;6050735;23;20360;-48
2023/10/14 00:30:26;;;;;;;18.40;3.95;;;;;;;;;;6051447;23;20033;-60
2023/10/14 00:33:13;;;;;;;26.38;3.83;;;;;;;;;;6051955;23;20027;-61
2023/10/14 00:36:14;;;;;;;21.48;4.03;;;;;;;;;;6052703;23;20038;-61
2023/10/14 00:39:15;;;;;;;21.58;4.13;;;;;;;;;;6052290;23;20033;-61
2023/10/14 00:42:08;;;;;;;28.23;4.43;;;;;;;;;;6053662;23;20082;-61
2023/10/14 00:44:56;;;;;;;23.40;4.18;;;;;;;;;;6052903;23;20074;-61
2023/10/14 00:47:49;;;;;;;22.55;3.35;;;;;;;;;;6052245;23;20023;-59
2023/10/14 00:50:36;;;;;;;28.38;4.32;;;;;;;;;;6053192;23;20027;-46
2023/10/14 00:53:30;;;;;;;32.92;3.95;;;;;;;;;;6050820;23;20090;-49
2023/10/14 00:56:31;;;;;;;26.42;4.05;;;;;;;;;;6051319;23;20074;-50
2023/10/14 00:59:18;;;;;;;24.23;3.90;;;;;;;;;;6049680;23;20030;-56
2023/10/14 01:02:11;;;;;;;34.80;4.18;;;;;;;;;;6050950;23;20540;-46
2023/10/14 01:05:14;;;;;;;27.67;5.13;;;;;;;;;;6050641;23;20206;-49
2023/10/14 01:08:08;;;;;;;20.35;4.20;;;;;;;;;;6052491;23;20033;-59
2023/10/14 01:10:58;;;;;;;21.67;4.10;;;;;;;;;;6052215;23;20405;-61
2023/10/14 01:13:45;;;;;;;22.95;3.50;;;;;;;;;;6050953;23;20029;-61
2023/10/14 01:16:52;;;;;;;33.92;5.38;;;;;;;;;;6053891;23;20445;-61
2023/10/14 01:19:46;;;;;;;33.40;4.15;;;;;;;;;;6080417;23;20088;-61
2023/10/14 01:22:40;;;;;;;30.80;3.85;;;;;;;;;;6078121;23;20041;-61
2023/10/14 01:25:31;;;;;;;30.45;3.95;;;;;;;;;;6079068;23;20141;-59
2023/10/14 01:28:30;;;;;;;27.27;4.00;;;;;;;;;;6079168;23;20030;-60
2023/10/14 01:31:57;;;;;;;31.98;3.90;;;;;;;;;;6080099;23;20027;-59
2023/10/14 01:34:28;;;;;;;26.75;3.95;;;;;;;;;;6079046;23;20053;-59
2023/10/14 01:37:14;;;;;;;22.65;3.90;;;;;;;;;;6079965;23;20511;-60
2023/10/14 01:40:24;;;;;;;33.08;4.07;;;;;;;;;;6080192;23;20026;-59
2023/10/14 01:43:11;;;;;;;24.00;3.67;;;;;;;;;;6080849;23;20081;-61
2023/10/14 01:48:32;;;;;;;30.52;4.40;;;;;;;;;;6082295;23;20085;-59
2023/10/14 01:51:19;;;;;;;39.03;5.30;;;;;;;;;;6081596;23;20113;-58
2023/10/14 01:54:13;;;;;;;38.65;5.00;;;;;;;;;;6080785;23;20397;-59
2023/10/14 01:57:00;;;;;;;25.00;4.53;;;;;;;;;;6082232;23;20031;-59
2023/10/14 01:59:54;;;;;;;22.20;3.63;;;;;;;;;;6079442;23;20472;-58
2023/10/14 02:02:48;;;;;;;27.65;4.55;;;;;;;;;;6080971;23;20093;-64
2023/10/14 02:05:40;;;;;;;27.63;3.90;;;;;;;;;;6078213;23;20106;-61
2023/10/14 02:08:23;;;;;;;28.25;4.35;;;;;;;;;;6080469;23;20078;-60
2023/10/14 02:11:16;;;;;;;31.20;4.30;;;;;;;;;;6080990;23;20026;-61
2023/10/14 02:14:10;;;;;;;46.45;4.30;;;;;;;;;;6079456;23;20085;-61
2023/10/14 02:17:04;;;;;;;31.40;4.22;;;;;;;;;;6080771;23;20034;-61
2023/10/14 02:20:20;;;;;;;27.10;4.82;;;;;;;;;;6079963;23;20031;-49
2023/10/14 02:22:58;;;;;;;27.85;3.50;;;;;;;;;;6080686;23;20077;-46
2023/10/14 02:25:56;;;;;;;32.60;4.88;;;;;;;;;;6079993;23;20026;-45
2023/10/14 02:28:45;;;;;;;29.85;4.40;;;;;;;;;;6079860;23;20113;-45
2023/10/14 02:31:36;;;;;;;26.90;3.92;;;;;;;;;;6081132;23;20500;-49
2023/10/14 02:34:23;;;;;;;28.92;4.28;;;;;;;;;;6081060;23;20098;-49
2023/10/14 02:37:17;;;;;;;33.35;3.90;;;;;;;;;;6082596;23;20026;-51
2023/10/14 02:40:10;;;;;;;26.15;3.78;;;;;;;;;;6080500;23;20026;-59
2023/10/14 02:42:58;;;;;;;24.05;3.88;;;;;;;;;;6080807;23;20029;-63
2023/10/14 02:45:46;;;;;;;28.45;4.05;;;;;;;;;;6080617;23;20101;-63
2023/10/14 02:48:54;;;;;;;26.63;3.95;;;;;;;;;;6081336;23;20026;-63
2023/10/14 02:51:43;;;;;;;37.67;4.32;;;;;;;;;;6082566;23;20026;-63
2023/10/14 02:54:36;;;;;;;26.55;3.42;;;;;;;;;;6080606;23;20064;-63
2023/10/14 02:57:25;;;;;;;38.55;5.38;;;;;;;;;;6082361;23;20551;-48
2023/10/14 03:00:30;;;;;;;25.20;3.97;;;;;;;;;;6083561;23;20022;-59
2023/10/14 03:03:19;;;;;;;24.13;3.70;;;;;;;;;;6083273;23;20022;-59
2023/10/14 03:06:14;;;;;;;33.95;4.25;;;;;;;;;;6082411;23;20460;-59
2023/10/14 03:08:59;;;;;;;38.28;4.75;;;;;;;;;;6081560;23;20030;-59
2023/10/14 03:11:52;;;;;;;36.40;4.03;;;;;;;;;;6080409;23;20408;-58
2023/10/14 03:14:40;;;;;;;28.92;3.67;;;;;;;;;;6080709;23;20409;-64
2023/10/14 03:17:40;;;;;;;34.40;3.92;;;;;;;;;;6081038;23;20660;-48
2023/10/14 03:20:44;;;;;;;31.35;3.72;;;;;;;;;;6080955;23;20022;-61
2023/10/14 03:23:27;;;;;;;22.25;4.55;;;;;;;;;;6081471;23;20059;-60
2023/10/14 03:26:26;;;;;;;28.73;4.80;;;;;;;;;;6080934;23;20050;-60
2023/10/14 03:29:15;;;;;;;24.98;3.78;;;;;;;;;;6081327;23;20026;-60
2023/10/14 03:32:02;;;;;;;23.73;3.88;;;;;;;;;;6081546;23;20027;-60
2023/10/14 03:34:49;;;;;;;29.23;4.30;;;;;;;;;;6082322;23;20036;-60
2023/10/14 03:37:52;;;;;;;32.97;4.00;;;;;;;;;;6080810;23;20105;-58
2023/10/14 03:43:23;;;;;;;34.45;4.38;;;;;;;;;;6080673;23;20033;-60
2023/10/14 03:46:29;;;;;;;28.35;4.13;;;;;;;;;;6080325;23;20061;-59
2023/10/14 03:49:20;;;;;;;35.17;4.32;;;;;;;;;;6079242;23;20030;-59
2023/10/14 03:52:14;;;;;;;33.40;3.63;;;;;;;;;;6079970;23;20789;-60
2023/10/14 03:55:12;;;;;;;24.33;4.40;;;;;;;;;;6080857;23;20037;-63
2023/10/14 03:58:03;;;;;;;38.00;4.35;;;;;;;;;;6081490;23;20097;-63
2023/10/14 04:00:50;;;;;;;38.67;5.13;;;;;;;;;;6080164;23;20488;-62
2023/10/14 04:03:39;;;;;;;25.95;3.67;;;;;;;;;;6082549;23;20065;-63
2023/10/14 04:06:34;;;;;;;34.70;3.80;;;;;;;;;;6082354;23;20026;-63
2023/10/14 04:09:24;;;;;;;31.33;4.07;;;;;;;;;;6081777;23;20782;-63
2023/10/14 04:12:53;;;;;;;34.17;5.18;;;;;;;;;;6081879;23;20049;-50
2023/10/14 04:17:58;;;;;;;37.05;4.60;;;;;;;;;;6078950;23;20034;-58
2023/10/14 04:26:34;;;;;;;42.42;4.82;;;;;;;;;;6079952;23;20515;-59
2023/10/14 04:29:39;;;;;;;24.55;3.75;;;;;;;;;;6078745;23;20468;-48
2023/10/14 04:32:43;;;;;;;30.40;4.40;;;;;;;;;;6080175;23;20752;-66
2023/10/14 04:35:19;;;;;;;25.65;3.33;;;;;;;;;;6078903;23;20022;-66
2023/10/14 04:38:13;;;;;;;21.77;3.58;;;;;;;;;;6081605;23;20101;-66
2023/10/14 04:40:58;;;;;;;32.88;3.75;;;;;;;;;;6079981;23;20023;-67
2023/10/14 04:46:32;;;;;;;23.45;3.83;;;;;;;;;;6078476;23;20026;-66
2023/10/14 04:49:09;;;;;;;26.20;4.72;;;;;;;;;;6079162;23;20129;-59
2023/10/14 04:52:05;;;;;;;40.22;4.53;;;;;;;;;;6079907;23;20511;-49
2023/10/14 04:55:06;;;;;;;32.03;4.05;;;;;;;;;;6080333;23;20064;-50
2023/10/14 04:58:33;;;;;;;32.28;4.07;;;;;;;;;;6080467;23;20464;-54
2023/10/14 05:00:52;;;;;;;23.73;4.03;;;;;;;;;;6072377;23;20080;-49
2023/10/14 05:03:35;;;;;;;36.55;5.03;;;;;;;;;;6081752;23;20105;-49
2023/10/14 05:06:23;;;;;;;40.33;4.47;;;;;;;;;;6081985;23;20747;-62
2023/10/14 05:09:39;;;;;;;38.72;5.60;;;;;;;;;;6082628;23;20075;-50
2023/10/14 05:12:26;;;;;;;30.65;3.75;;;;;;;;;;6081627;23;20134;-49
2023/10/14 05:15:20;;;;;;;29.05;3.90;;;;;;;;;;6081201;23;20412;-50
2023/10/14 05:18:16;;;;;;;29.65;4.45;;;;;;;;;;6079303;23;20030;-45
2023/10/14 05:21:20;;;;;;;26.77;4.13;;;;;;;;;;6081185;23;20022;-47
2023/10/14 05:23:59;;;;;;;29.95;4.95;;;;;;;;;;6078980;23;20038;-54
2023/10/14 05:26:58;;;;;;;35.00;5.38;;;;;;;;;;6080438;23;20328;-59
2023/10/14 05:29:38;;;;;;;30.02;5.05;;;;;;;;;;6079198;23;20821;-59
2023/10/14 05:32:32;;;;;;;31.30;4.28;;;;;;;;;;6079957;23;20038;-59
2023/10/14 05:35:22;;;;;;;47.03;5.50;;;;;;;;;;6080398;23;20029;-60
2023/10/14 05:38:14;;;;;;;30.58;3.63;;;;;;;;;;6081052;23;20353;-59
2023/10/14 05:41:00;;;;;;;25.23;4.43;;;;;;;;;;6079518;23;20022;-60
2023/10/14 05:43:54;;;;;;;28.77;4.47;;;;;;;;;;6080180;23;20030;-62
2023/10/14 05:46:41;;;;;;;21.92;4.03;;;;;;;;;;6077421;23;20038;-52
2023/10/14 05:49:35;;;;;;;25.70;4.55;;;;;;;;;;6080148;23;20453;-46
2023/10/14 05:52:30;;;;;;;29.75;5.22;;;;;;;;;;6080696;23;20082;-47
2023/10/14 05:55:19;;;;;;;28.10;4.80;;;;;;;;;;6078402;23;20026;-51
2023/10/14 05:58:18;;;;;;;31.50;4.75;;;;;;;;;;6080099;23;20490;-49
2023/10/14 06:01:13;;;;;;;33.13;4.13;;;;;;;;;;6079783;23;20029;-60
2023/10/14 06:04:12;;;;;;;26.33;4.85;;;;;;;;;;6079886;23;20034;-60
2023/10/14 06:06:53;;;;;;;27.08;4.60;;;;;;;;;;6083982;23;20498;-60
2023/10/14 06:09:47;;;;;;;25.20;3.88;;;;;;;;;;6083246;23;20504;-59
2023/10/14 06:12:34;;;;;;;34.40;4.80;;;;;;;;;;6081983;23;20543;-59
2023/10/14 06:15:28;;;;;;;39.53;5.05;;;;;;;;;;6081585;23;20118;-60
2023/10/14 06:18:22;;;;;;;31.92;4.88;;;;;;;;;;6081764;23;20053;-59
2023/10/14 06:21:16;;;;;;;31.88;5.30;;;;;;;;;;6082138;23;20026;-65
2023/10/14 06:24:04;;;;;;;32.83;4.72;;;;;;;;;;6081956;23;20026;-59
2023/10/14 06:27:09;;;;;;;27.05;3.38;;;;;;;;;;6082922;23;20026;-59
2023/10/14 06:29:56;;;;;;;19.02;3.10;;;;;;;;;;6081851;23;20030;-60
2023/10/14 06:32:58;;;;;;;26.67;4.03;;;;;;;;;;6081067;23;20431;-59
2023/10/14 06:35:44;;;;;;;22.33;3.80;;;;;;;;;;6080615;23;20031;-60
2023/10/14 06:38:44;;;;;;;20.42;3.53;;;;;;;;;;6079999;23;20034;-49
2023/10/14 06:41:27;;;;;;;21.08;3.72;;;;;;;;;;6080919;23;20026;-48
2023/10/14 06:44:21;;;;;;;21.83;3.55;;;;;;;;;;6081529;23;20031;-51
2023/10/14 06:47:08;;;;;;;24.00;3.05;;;;;;;;;;6079424;23;20026;-47
2023/10/14 06:50:01;;;;;;;20.88;2.70;;;;;;;;;;6080257;23;20022;-47
2023/10/14 06:52:47;;;;;;;26.25;3.25;;;;;;;;;;6084140;23;20346;-51
2023/10/14 06:55:42;;;;;;;23.92;4.15;;;;;;;;;;6081159;23;20460;-63
2023/10/14 06:58:36;;;;;;;26.60;4.13;;;;;;;;;;6083536;23;20045;-51
2023/10/14 07:01:30;;;;;;;21.10;3.33;;;;;;;;;;6081372;23;20037;-57
2023/10/14 07:04:20;;;;;;;22.15;3.83;;;;;;;;;;6084463;23;20026;-59
2023/10/14 07:07:14;;;;;;;27.05;4.43;;;;;;;;;;6084423;23;20030;-60
2023/10/14 07:10:08;;;;;;;28.23;4.00;;;;;;;;;;6084090;23;20578;-60
2023/10/14 07:13:00;;;;;;;25.50;4.22;;;;;;;;;;6084891;23;20121;-59
2023/10/14 07:15:53;;;;;;;35.63;4.93;;;;;;;;;;6082007;23;20023;-59
2023/10/14 07:18:48;;;;;;;29.45;4.40;;;;;;;;;;6082950;23;20141;-60
2023/10/14 07:21:42;;;;;;;26.48;3.78;;;;;;;;;;6083204;23;20029;-58
2023/10/14 07:24:30;;;;;;;25.05;4.25;;;;;;;;;;6081427;23;20030;-58
2023/10/14 07:27:24;;;;;;;23.38;3.58;;;;;;;;;;6081623;23;20037;-59
2023/10/14 07:30:14;;;;;;;25.23;4.53;;;;;;;;;;6081315;23;20142;-58
2023/10/14 07:33:08;;;;;;;17.45;4.00;;;;;;;;;;6083042;23;20032;-61
2023/10/14 07:35:58;;;;;;;24.48;4.15;;;;;;;;;;6080827;23;20456;-63
2023/10/14 07:38:56;;;;;;;29.00;3.97;;;;;;;;;;6080861;23;20113;-64
2023/10/14 07:41:39;;;;;;;28.42;3.95;;;;;;;;;;6081428;23;20098;-64
2023/10/14 07:44:34;;;;;;;28.52;4.05;;;;;;;;;;6082157;23;20026;-65
2023/10/14 07:47:21;;;;;;;27.80;4.05;;;;;;;;;;6081045;23;20113;-64
2023/10/14 07:50:15;;;;;;;31.15;4.55;;;;;;;;;;6080685;23;20670;-64
2023/10/14 07:53:07;;;;;;;26.45;4.38;;;;;;;;;;6082003;23;20243;-52
2023/10/14 07:55:56;;;;;;;27.48;3.63;;;;;;;;;;6081742;23;20030;-64
2023/10/14 07:58:43;;;;;;;24.77;3.72;;;;;;;;;;6082069;23;20058;-64
2023/10/14 08:01:38;;;;;;;23.38;3.90;;;;;;;;;;6081710;23;20465;-64
2023/10/14 08:04:28;;;;;;;23.50;3.63;;;;;;;;;;6082840;23;20042;-63
2023/10/14 08:07:19;;;;;;;22.52;3.42;;;;;;;;;;6085640;23;20349;-64
2023/10/14 08:10:16;;;;;;;26.08;3.58;;;;;;;;;;6084046;23;20030;-50
2023/10/14 08:13:10;;;;;;;21.33;3.63;;;;;;;;;;6084188;23;20019;-61
2023/10/14 08:15:58;;;;;;;22.17;3.20;;;;;;;;;;6081800;23;20019;-61
2023/10/14 08:18:58;;;;;;;20.27;3.40;;;;;;;;;;6081962;23;20026;-61
2023/10/14 08:21:50;;;;;;;19.35;3.50;;;;;;;;;;6078039;23;20030;-61
2023/10/14 08:24:39;;;;;;;16.15;2.95;;;;;;;;;;6081998;23;20030;-61
2023/10/14 08:27:28;;;;;;;24.45;3.80;;;;;;;;;;6080643;23;20106;-61
2023/10/14 08:30:26;;;;;;;16.83;3.28;;;;;;;;;;6081404;23;20026;-63
2023/10/14 08:33:13;;;;;;;24.60;3.45;;;;;;;;;;6078099;23;20465;-48
2023/10/14 08:36:13;;;;;;;18.83;2.95;;;;;;;;;;6081380;23;20018;-46
2023/10/14 08:39:18;;;;;;;24.88;3.60;;;;;;;;;;6081114;23;20046;-48
2023/10/14 08:42:18;;;;;;;23.45;3.30;;;;;;;;;;6079284;23;20029;-54
2023/10/14 08:45:05;;;;;;;19.92;3.22;;;;;;;;;;6078308;23;20030;-49
2023/10/14 08:48:00;;;;;;;21.58;3.80;;;;;;;;;;6081430;23;20086;-61
2023/10/14 08:50:55;;;;;;;29.83;4.43;;;;;;;;;;6080488;23;20026;-67
2023/10/14 08:53:53;;;;;;;26.60;3.85;;;;;;;;;;6081760;23;20089;-67
2023/10/14 08:56:36;;;;;;;29.50;4.25;;;;;;;;;;6080470;23;20061;-67
2023/10/14 08:59:33;;;;;;;25.20;4.03;;;;;;;;;;6076826;23;20404;-67
2023/10/14 09:02:22;;;;;;;19.23;3.85;;;;;;;;;;6077929;23;20031;-65
2023/10/14 09:05:16;;;;;;;28.13;4.20;;;;;;;;;;6079820;23;20076;-47
2023/10/14 09:08:10;;;;;;;29.38;4.82;;;;;;;;;;6078907;23;20053;-48
2023/10/14 09:11:04;;;;;;;38.53;4.78;;;;;;;;;;6079458;23;20034;-47
2023/10/14 09:14:00;;;;;;;23.33;4.03;;;;;;;;;;6082125;23;20030;-48
2023/10/14 09:16:55;;;;;;;24.33;3.47;;;;;;;;;;6080821;23;20030;-50
2023/10/14 09:19:56;;;;;;;23.45;3.45;;;;;;;;;;6079863;23;20909;-53
2023/10/14 09:22:43;;;;;;;24.70;3.92;;;;;;;;;;6080527;23;20023;-50
2023/10/14 09:25:40;;;;;;;27.35;4.10;;;;;;;;;;6080625;23;20480;-62
2023/10/14 09:28:35;;;;;;;28.77;4.43;;;;;;;;;;6080192;23;20041;-62
2023/10/14 09:31:25;;;;;;;28.00;3.65;;;;;;;;;;6079934;23;20030;-60
2023/10/14 09:34:21;;;;;;;25.37;4.07;;;;;;;;;;6080832;23;20022;-61
2023/10/14 09:37:12;;;;;;;30.38;5.85;;;;;;;;;;6080737;23;20101;-64
2023/10/14 09:40:13;;;;;;;25.08;4.32;;;;;;;;;;6081848;23;20034;-64
2023/10/14 09:43:02;;;;;;;33.78;4.40;;;;;;;;;;6081554;23;20023;-67
2023/10/14 09:45:57;;;;;;;31.30;4.60;;;;;;;;;;6081451;23;20508;-61
2023/10/14 09:48:45;;;;;;;23.33;4.40;;;;;;;;;;6082167;23;20142;-60
2023/10/14 09:51:38;;;;;;;25.50;3.63;;;;;;;;;;6080383;23;20027;-59
2023/10/14 09:54:26;;;;;;;18.30;3.78;;;;;;;;;;6082033;23;20042;-61
2023/10/14 09:57:20;;;;;;;18.20;2.92;;;;;;;;;;6074493;23;20026;-60
2023/10/14 10:00:10;;;;;;;21.38;3.58;;;;;;;;;;6079720;23;20027;-47
2023/10/14 10:03:06;;;;;;;28.67;3.63;;;;;;;;;;6080138;23;20621;-66
2023/10/14 10:06:12;;;;;;;30.95;4.75;;;;;;;;;;6078808;23;20057;-67
2023/10/14 10:09:25;;;;;;;35.38;4.30;;;;;;;;;;6082383;23;20078;-65
2023/10/14 10:12:20;;;;;;;28.95;4.35;;;;;;;;;;6082386;23;20030;-65
2023/10/14 10:15:07;;;;;;;30.58;3.65;;;;;;;;;;6080899;23;20050;-65
2023/10/14 10:18:12;;;;;;;31.90;4.32;;;;;;;;;;6079939;23;20026;-50
2023/10/14 10:21:04;;;;;;;20.38;3.55;;;;;;;;;;6081109;23;20022;-65
2023/10/14 10:24:09;;;;;;;22.55;3.80;;;;;;;;;;6081810;23;20026;-65
2023/10/14 10:27:03;;;;;;;23.90;3.78;;;;;;;;;;6079564;23;20030;-65
2023/10/14 10:29:57;;;;;;;30.35;4.95;;;;;;;;;;6079863;23;20646;-65
2023/10/14 10:32:49;;;;;;;31.25;4.68;;;;;;;;;;6080405;23;20029;-65
2023/10/14 10:36:13;;;;;;;26.17;4.35;;;;;;;;;;6081197;23;20132;-66
2023/10/14 10:39:17;;;;;;;31.08;4.15;;;;;;;;;;6080442;23;20037;-59
2023/10/14 10:42:11;;;;;;;33.33;4.90;;;;;;;;;;6079888;23;20349;-60
2023/10/14 10:45:09;;;;;;;35.60;4.85;;;;;;;;;;6077477;23;20405;-59
2023/10/14 10:47:46;;;;;;;31.48;5.13;;;;;;;;;;6079644;23;20829;-59
2023/10/14 10:50:25;;;;;;;29.83;4.80;;;;;;;;;;6076753;23;20030;-60
2023/10/14 10:53:19;;;;;;;38.95;5.30;;;;;;;;;;6080297;23;20052;-60
2023/10/14 10:56:07;;;;;;;31.35;4.43;;;;;;;;;;6080544;23;20105;-48
2023/10/14 10:59:04;;;;;;;33.20;5.85;;;;;;;;;;6079367;23;20038;-58
2023/10/14 11:01:54;;;;;;;37.53;5.50;;;;;;;;;;6080042;23;20030;-58
2023/10/14 11:04:51;;;;;;;27.40;5.63;;;;;;;;;;6082189;23;20029;-59
2023/10/14 11:07:47;;;;;;;37.55;6.00;;;;;;;;;;6079562;23;20061;-58
2023/10/14 11:10:44;;;;;;;31.58;4.35;;;;;;;;;;6080818;23;20026;-60
2023/10/14 11:13:31;;;;;;;40.13;5.35;;;;;;;;;;6082462;23;20099;-65
2023/10/14 11:16:27;;;;;;;36.97;5.90;;;;;;;;;;6080150;23;20084;-59
2023/10/14 11:19:21;;;;;;;37.55;5.53;;;;;;;;;;6080716;23;20105;-59
2023/10/14 11:22:13;;;;;;;45.65;6.35;;;;;;;;;;6081194;23;20058;-58
2023/10/14 11:25:00;;;;;;;34.67;5.55;;;;;;;;;;6080609;23;20022;-59
2023/10/14 11:27:54;;;;;;;34.17;6.80;;;;;;;;;;6077231;23;20026;-59
2023/10/14 11:30:42;;;;;;;38.15;5.82;;;;;;;;;;6080003;23;20440;-59
2023/10/14 11:33:36;;;;;;;31.52;5.25;;;;;;;;;;6081071;23;20023;-59
2023/10/14 11:36:26;;;;;;;38.35;6.53;;;;;;;;;;6080961;23;20345;-60
2023/10/14 11:39:20;;;;;;;48.58;6.70;;;;;;;;;;6080466;23;20027;-60
2023/10/14 11:42:07;;;;;;;38.95;6.63;;;;;;;;;;6079445;23;20026;-60
2023/10/14 11:45:06;;;;;;;38.45;6.60;;;;;;;;;;6080563;23;20073;-60
2023/10/14 11:47:48;;;;;;;27.58;4.10;;;;;;;;;;6080116;23;20041;-60
2023/10/14 11:50:42;;;;;;;33.22;6.05;;;;;;;;;;6079668;23;20070;-58
2023/10/14 11:53:32;;;;;;;38.35;5.90;;;;;;;;;;6082276;23;20045;-57
2023/10/14 11:56:25;;;;;;;48.08;6.63;;;;;;;;;;6079913;23;20033;-57
2023/10/14 11:59:12;;;;;;;44.75;5.72;;;;;;;;;;6081113;23;20029;-58
2023/10/14 12:02:06;;;;;;;38.75;5.43;;;;;;;;;;6080512;23;20074;-58
2023/10/14 12:04:53;;;;;;;36.45;5.50;;;;;;;;;;6081499;23;20030;-58
2023/10/14 12:07:48;;;;;;;34.20;5.28;;;;;;;;;;6080252;23;20025;-59
2023/10/14 12:10:35;;;;;;;34.85;5.03;;;;;;;;;;6081068;23;20033;-67
2023/10/14 12:13:29;;;;;;;29.85;4.97;;;;;;;;;;6080548;23;20030;-49
2023/10/14 12:16:18;;;;;;;34.28;6.25;;;;;;;;;;6080738;23;20022;-52
2023/10/14 12:19:30;;;;;;;36.72;6.70;;;;;;;;;;6080862;23;20023;-50
2023/10/14 12:22:17;;;;;;;22.88;3.60;;;;;;;;;;6079602;23;20022;-51
2023/10/14 12:25:11;;;;;;;26.52;4.07;;;;;;;;;;6060869;23;20022;-47
2023/10/14 12:27:58;;;;;;;40.00;5.78;;;;;;;;;;6079031;23;20026;-59
2023/10/14 12:30:52;;;;;;;31.98;4.82;;;;;;;;;;6081335;23;20128;-67
2023/10/14 12:33:47;;;;;;;26.85;4.95;;;;;;;;;;6078995;23;20026;-67
2023/10/14 12:36:40;;;;;;;35.38;6.10;;;;;;;;;;6078948;23;20030;-68
2023/10/14 12:39:33;;;;;;;42.78;6.43;;;;;;;;;;6080415;23;20026;-67
2023/10/14 12:42:24;;;;;;;32.65;5.05;;;;;;;;;;6079994;23;20473;-67
2023/10/14 12:45:12;;;;;;;22.20;4.53;;;;;;;;;;6079004;23;20030;-67
2023/10/14 12:48:09;;;;;;;25.50;4.65;;;;;;;;;;6077934;23;20700;-66
2023/10/14 12:50:57;;;;;;;27.13;5.00;;;;;;;;;;6078747;23;20533;-68
2023/10/14 12:53:50;;;;;;;24.95;5.47;;;;;;;;;;6081211;23;20034;-68
2023/10/14 12:56:41;;;;;;;30.23;5.63;;;;;;;;;;6080112;23;20053;-68
2023/10/14 12:59:41;;;;;;;32.95;5.25;;;;;;;;;;6080555;23;20093;-68
2023/10/14 13:02:29;;;;;;;25.23;5.03;;;;;;;;;;6080079;23;20485;-68
2023/10/14 13:05:22;;;;;;;34.30;5.43;;;;;;;;;;6081088;23;20023;-51
2023/10/14 13:08:10;;;;;;;32.15;5.15;;;;;;;;;;6081991;23;20022;-61
2023/10/14 13:11:03;;;;;;;46.42;6.95;;;;;;;;;;6077495;23;20022;-59
2023/10/14 13:13:50;;;;;;;47.88;6.57;;;;;;;;;;6069688;23;20027;-58
2023/10/14 13:16:44;;;;;;;37.50;5.18;;;;;;;;;;6078446;23;20468;-58
2023/10/14 13:19:38;;;;;;;44.90;6.15;;;;;;;;;;6075374;23;20022;-57
2023/10/14 13:22:31;;;;;;;;;;;;;;;;;;6078727;23;20022;-58
2023/10/14 13:25:21;;;;;;;36.88;5.38;;;;;;;;;;6080234;23;19921;-58
2023/10/14 13:28:13;;;;;;;45.22;5.28;;;;;;;;;;6077977;23;20244;-57
2023/10/14 13:31:00;;;;;;;44.25;5.95;;;;;;;;;;6079168;23;20030;-59
2023/10/14 13:33:55;;;;;;;39.78;5.10;;;;;;;;;;6078882;23;20034;-58
2023/10/14 13:36:44;;;;;;;44.20;5.65;;;;;;;;;;6079346;23;20030;-58
2023/10/14 13:39:35;;;;;;;35.17;4.63;;;;;;;;;;6077843;23;20033;-58
2023/10/14 13:42:23;;;;;;;30.67;4.18;;;;;;;;;;6079234;23;20022;-58
2023/10/14 13:45:17;;;;;;;38.17;4.88;;;;;;;;;;6080406;23;20073;-49
2023/10/14 13:48:07;;;;;;;44.03;4.20;;;;;;;;;;6079456;23;20027;-48
2023/10/14 13:51:01;;;;;;;20.92;3.45;;;;;;;;;;6077702;23;20086;-47
2023/10/14 13:53:34;;;;;;;36.33;6.15;;;;;;;;;;6077340;23;20113;-52
2023/10/14 13:56:10;;;;;;;35.30;5.18;;;;;;;;;;6078886;23;20389;-47
2023/10/14 13:58:37;;;;;;;33.40;5.30;;;;;;;;;;6076560;23;20595;-62
2023/10/14 14:01:31;;;;;;;33.78;5.20;;;;;;;;;;6070740;23;20027;-52
2023/10/14 14:04:20;;;;;;;36.97;4.97;;;;;;;;;;6079198;23;20076;-49
2023/10/14 14:07:13;;;;;;;34.05;4.82;;;;;;;;;;6079245;23;20030;-53
2023/10/14 14:10:00;;;;;;;36.63;5.95;;;;;;;;;;6080188;23;20030;-51
2023/10/14 14:12:54;;;;;;;32.50;5.97;;;;;;;;;;6082024;23;20062;-52
2023/10/14 14:15:42;;;;;;;31.05;5.22;;;;;;;;;;6081287;23;20563;-51
2023/10/14 14:18:42;;;;;;;41.88;5.25;;;;;;;;;;6077813;23;20337;-65
2023/10/14 14:21:36;;;;;;;41.45;5.75;;;;;;;;;;6081961;23;20090;-62
2023/10/14 14:24:33;;;;;;;33.90;5.15;;;;;;;;;;6082429;23;20403;-63
2023/10/14 14:27:17;;;;;;;34.17;5.95;;;;;;;;;;6083899;23;20077;-64
2023/10/14 14:30:12;;;;;;;30.92;4.85;;;;;;;;;;6083888;23;20026;-64
2023/10/14 14:33:07;;;;;;;39.45;6.78;;;;;;;;;;6082399;23;20058;-63
2023/10/14 14:35:53;;;;;;;30.33;5.47;;;;;;;;;;6084653;23;20030;-59
2023/10/14 14:38:46;;;;;;;36.13;5.35;;;;;;;;;;6083733;23;20377;-59
2023/10/14 14:41:36;;;;;;;35.45;6.00;;;;;;;;;;6083149;23;20222;-60
2023/10/14 14:44:27;;;;;;;40.55;6.93;;;;;;;;;;6083070;23;20361;-60
2023/10/14 14:47:14;;;;;;;40.60;6.20;;;;;;;;;;6081887;23;20026;-59
2023/10/14 14:50:13;;;;;;;43.17;7.65;;;;;;;;;;6080238;23;20480;-61
2023/10/14 14:53:06;;;;;;;42.83;5.85;;;;;;;;;;6082841;23;20029;-53
2023/10/14 14:55:59;;;;;;;44.20;6.88;;;;;;;;;;6085880;23;20023;-64
2023/10/14 14:58:45;;;;;;;47.47;6.82;;;;;;;;;;6084769;23;20105;-58
2023/10/14 15:01:40;;;;;;;35.03;5.93;;;;;;;;;;6084069;23;20026;-59
2023/10/14 15:04:26;;;;;;;41.55;6.63;;;;;;;;;;6085043;23;20029;-59
2023/10/14 15:07:21;;;;;;;34.00;5.68;;;;;;;;;;6083928;23;20093;-59
2023/10/14 15:10:07;;;;;;;33.50;5.88;;;;;;;;;;6085441;23;20282;-60
2023/10/14 15:13:06;;;;;;;29.67;4.95;;;;;;;;;;6084385;23;20436;-51
2023/10/14 15:15:57;;;;;;;32.08;5.32;;;;;;;;;;6083995;23;20069;-60
2023/10/14 15:19:10;;;;;;;36.90;5.80;;;;;;;;;;6083823;23;20026;-60
2023/10/14 15:22:06;;;;;;;48.13;8.43;;;;;;;;;;6082004;23;20454;-60
2023/10/14 15:24:51;;;;;;;35.65;4.35;;;;;;;;;;6083054;23;20742;-60
2023/10/14 15:27:45;;;;;;;30.48;5.15;;;;;;;;;;6084620;23;20026;-60
2023/10/14 15:30:33;;;;;;;26.40;5.17;;;;;;;;;;6084011;23;20058;-62
2023/10/14 15:33:27;;;;;;;33.50;4.57;;;;;;;;;;6083785;23;20030;-50
2023/10/14 15:36:15;;;;;;;29.73;4.78;;;;;;;;;;6083796;23;20086;-50
2023/10/14 15:39:15;;;;;;;27.98;5.72;;;;;;;;;;6081761;23;20033;-49
2023/10/14 15:41:55;;;;;;;38.35;5.07;;;;;;;;;;6081290;23;20030;-50
2023/10/14 15:44:54;;;;;;;27.77;4.43;;;;;;;;;;6082755;23;20082;-47
2023/10/14 15:47:39;;;;;;;26.20;5.05;;;;;;;;;;6084337;23;20022;-51
2023/10/14 15:50:37;;;;;;;42.80;6.40;;;;;;;;;;6083777;23;20053;-59
2023/10/14 15:53:07;;;;;;;25.25;5.43;;;;;;;;;;6082979;23;20022;-60
2023/10/14 15:56:02;;;;;;;22.02;5.25;;;;;;;;;;6083905;23;20034;-60
2023/10/14 15:58:45;;;;;;;21.92;3.67;;;;;;;;;;6082932;23;20468;-60
2023/10/14 16:01:39;;;;;;;24.73;5.13;;;;;;;;;;6082071;23;20030;-60
2023/10/14 16:04:27;;;;;;;31.30;4.82;;;;;;;;;;6081230;23;20022;-59
2023/10/14 16:07:21;;;;;;;28.75;4.10;;;;;;;;;;6081028;23;20026;-62
2023/10/14 16:10:10;;;;;;;23.55;3.63;;;;;;;;;;6083076;23;20030;-47
2023/10/14 16:13:05;;;;;;;25.95;4.38;;;;;;;;;;6081037;23;20046;-51
2023/10/14 16:15:53;;;;;;;33.08;4.43;;;;;;;;;;6083542;23;20025;-47
2023/10/14 16:18:51;;;;;;;28.38;4.72;;;;;;;;;;6082662;23;20030;-47
2023/10/14 16:21:38;;;;;;;24.42;4.82;;;;;;;;;;6083105;23;20029;-51
2023/10/14 16:24:32;;;;;;;29.75;4.53;;;;;;;;;;6083929;23;20029;-46
2023/10/14 16:27:20;;;;;;;22.33;4.22;;;;;;;;;;6082792;23;20109;-54
2023/10/14 16:30:15;;;;;;;31.88;4.63;;;;;;;;;;6082212;23;20026;-64
2023/10/14 16:33:04;;;;;;;26.90;3.97;;;;;;;;;;6083432;23;20053;-64
2023/10/14 16:35:57;;;;;;;21.00;3.72;;;;;;;;;;6084488;23;20246;-64
2023/10/14 16:38:57;;;;;;;24.90;4.22;;;;;;;;;;6081811;23;20464;-63
2023/10/14 16:41:44;;;;;;;25.40;4.35;;;;;;;;;;6080951;23;20030;-63
2023/10/14 16:44:38;;;;;;;20.27;3.67;;;;;;;;;;6080114;23;20531;-49
2023/10/14 16:47:25;;;;;;;25.23;4.00;;;;;;;;;;6081819;23;20022;-59
2023/10/14 16:50:24;;;;;;;24.60;4.00;;;;;;;;;;6079698;23;20033;-60
2023/10/14 16:53:08;;;;;;;19.80;3.42;;;;;;;;;;6079046;23;20389;-60
2023/10/14 16:56:04;;;;;;;26.20;4.43;;;;;;;;;;6077691;23;20023;-60
2023/10/14 16:58:51;;;;;;;24.55;4.60;;;;;;;;;;6080720;23;20026;-60
2023/10/14 17:01:44;;;;;;;35.15;4.70;;;;;;;;;;6077961;23;20133;-53
2023/10/14 17:04:31;;;;;;;31.58;4.85;;;;;;;;;;6079151;23;20037;-61
2023/10/14 17:07:25;;;;;;;31.42;4.68;;;;;;;;;;6079538;23;20471;-67
2023/10/14 17:10:14;;;;;;;22.00;4.53;;;;;;;;;;6078580;23;20030;-67
2023/10/14 17:13:10;;;;;;;31.20;5.45;;;;;;;;;;6076779;23;20134;-67
2023/10/14 17:15:58;;;;;;;27.67;4.45;;;;;;;;;;6082080;23;20073;-66